createdAt,value
2023-03-07T00:08:37.250Z,965.44
2023-03-07T00:23:40.097Z,965.41
2023-03-07T00:38:42.612Z,965.36
2023-03-07T00:53:45.630Z,965.38
2023-03-07T01:08:48.401Z,965.36
2023-03-07T01:23:52.065Z,965.49
2023-03-07T01:38:55.144Z,965.64
2023-03-07T01:53:57.640Z,965.74
2023-03-07T02:09:00.429Z,965.88
2023-03-07T02:24:03.403Z,965.99
2023-03-07T02:39:05.916Z,966.09
2023-03-07T02:54:08.648Z,966.2
2023-03-07T03:09:11.034Z,966.33
2023-03-07T03:24:13.850Z,966.37
2023-03-07T03:39:16.585Z,966.56
2023-03-07T03:54:19.259Z,966.79
2023-03-07T04:09:22.102Z,966.83
2023-03-07T04:24:24.828Z,966.9
2023-03-07T04:39:27.238Z,967.04
2023-03-07T04:54:29.588Z,967.15
2023-03-07T05:09:31.919Z,967.27
2023-03-07T05:24:34.207Z,967.4
2023-03-07T05:39:36.532Z,967.49
2023-03-07T05:54:38.864Z,967.52
2023-03-07T06:09:41.213Z,967.57
2023-03-07T06:24:43.586Z,967.68
2023-03-07T06:39:45.980Z,967.77
2023-03-07T06:54:48.375Z,967.83
2023-03-07T07:09:50.668Z,967.85
2023-03-07T07:24:52.956Z,967.86
2023-03-07T07:39:55.404Z,967.9
2023-03-07T07:54:57.691Z,967.96
2023-03-07T08:09:59.960Z,968.03
2023-03-07T08:25:02.302Z,968.05
2023-03-07T08:40:04.661Z,968.17
2023-03-07T08:55:06.931Z,968.26
2023-03-07T09:10:09.235Z,968.32
2023-03-07T09:25:11.712Z,968.38
2023-03-07T09:40:14.035Z,968.41
2023-03-07T09:55:16.385Z,968.45
2023-03-07T10:10:18.658Z,968.41
2023-03-07T10:25:20.940Z,968.38
2023-03-07T10:40:23.258Z,968.33
2023-03-07T10:55:25.576Z,968.31
2023-03-07T11:10:27.951Z,968.25
2023-03-07T11:25:30.290Z,968.21
2023-03-07T11:40:32.754Z,968.3
2023-03-07T11:55:36.105Z,968.28
2023-03-07T12:10:38.484Z,968.35
2023-03-07T12:25:40.865Z,968.43
2023-03-07T12:40:43.148Z,968.46
2023-03-07T12:55:45.458Z,968.51
2023-03-07T13:10:47.862Z,968.59
2023-03-07T13:25:50.178Z,968.56
2023-03-07T13:40:52.485Z,968.62
2023-03-07T13:55:54.839Z,968.66
2023-03-07T14:10:57.185Z,968.75
2023-03-07T14:25:59.490Z,968.79
2023-03-07T14:41:01.811Z,968.78
2023-03-07T14:56:04.281Z,968.8
2023-03-07T15:11:06.595Z,968.86
2023-03-07T15:26:08.900Z,968.93
2023-03-07T15:41:11.221Z,969.04
2023-03-07T15:56:13.556Z,969.06
2023-03-07T16:11:15.910Z,969.12
2023-03-07T16:26:18.271Z,969.1
2023-03-07T16:41:20.649Z,969.15
2023-03-07T16:56:22.991Z,969.44
2023-03-07T17:11:25.494Z,969.1
2023-03-07T17:26:27.826Z,969.1
2023-03-07T17:41:30.178Z,969.01
2023-03-07T17:56:32.495Z,968.92
2023-03-07T18:11:34.896Z,968.89
2023-03-07T18:26:37.203Z,968.86
2023-03-07T18:41:39.519Z,968.79
2023-03-07T18:56:41.878Z,968.58
2023-03-07T19:11:44.461Z,968.34
2023-03-07T19:26:46.763Z,968.14
2023-03-07T19:41:49.135Z,967.94
2023-03-07T19:56:51.564Z,967.81
2023-03-07T20:11:53.875Z,967.59
2023-03-07T20:26:56.176Z,967.41
2023-03-07T20:41:58.544Z,967.27
2023-03-07T20:57:00.865Z,967.15
2023-03-07T21:12:03.157Z,967.01
2023-03-07T21:27:05.494Z,966.87
2023-03-07T21:42:07.772Z,966.68
2023-03-07T21:57:10.137Z,966.62
2023-03-07T22:12:12.491Z,966.48
2023-03-07T22:27:14.784Z,966.4
2023-03-07T22:42:17.100Z,966.24
2023-03-07T22:57:19.377Z,966.15
2023-03-07T23:12:21.875Z,966.08
2023-03-07T23:27:24.230Z,965.95
2023-03-07T23:42:26.544Z,965.96
2023-03-07T23:57:28.943Z,965.88
